createdAt,value
2023-04-27T00:01:43.432Z,4.10
2023-04-27T00:04:10.415Z,4.18
2023-04-27T00:06:37.380Z,4.75
2023-04-27T00:09:04.685Z,4.57
2023-04-27T00:11:31.621Z,4.32
2023-04-27T00:13:58.643Z,4.32
2023-04-27T00:16:25.891Z,4.13
2023-04-27T00:18:52.726Z,4.38
2023-04-27T00:21:19.801Z,4.43
2023-04-27T00:23:46.587Z,4.28
2023-04-27T00:26:13.485Z,3.50
2023-04-27T00:28:43.483Z,4.10
2023-04-27T00:31:10.465Z,5.03
2023-04-27T00:33:37.583Z,4.55
2023-04-27T00:36:04.901Z,4.25
2023-04-27T00:38:31.738Z,4.18
2023-04-27T00:41:07.328Z,3.90
2023-04-27T00:43:43.699Z,4.07
2023-04-27T00:46:13.708Z,4.28
2023-04-27T00:48:41.895Z,3.83
2023-04-27T00:51:09.034Z,4.50
2023-04-27T00:53:37.478Z,4.82
2023-04-27T00:56:06.794Z,4.50
2023-04-27T00:58:33.751Z,4.55
2023-04-27T01:01:01.307Z,4.00
2023-04-27T01:03:47.668Z,4.50
2023-04-27T01:06:14.699Z,4.53
2023-04-27T01:08:43.854Z,4.00
2023-04-27T01:11:10.779Z,3.95
2023-04-27T01:13:39.362Z,4.43
2023-04-27T01:16:06.457Z,4.43
2023-04-27T01:18:33.784Z,4.75
2023-04-27T01:21:01.226Z,4.35
2023-04-27T01:23:28.113Z,4.38
2023-04-27T01:25:55.009Z,3.60
2023-04-27T01:28:21.809Z,5.03
2023-04-27T01:30:48.716Z,4.63
2023-04-27T01:33:15.536Z,4.93
2023-04-27T01:35:43.165Z,4.15
2023-04-27T01:38:10.167Z,5.25
2023-04-27T01:40:38.154Z,4.30
2023-04-27T01:43:05.152Z,4.18
2023-04-27T01:45:32.217Z,4.75
2023-04-27T01:48:00.279Z,4.50
2023-04-27T01:50:27.459Z,4.57
2023-04-27T01:52:54.391Z,4.78
2023-04-27T01:55:21.699Z,4.40
2023-04-27T01:57:48.537Z,4.90
2023-04-27T02:00:16.384Z,4.80
2023-04-27T02:02:51.306Z,4.78
2023-04-27T02:05:18.484Z,4.45
2023-04-27T02:07:46.464Z,4.53
2023-04-27T02:10:13.235Z,4.40
2023-04-27T02:12:40.102Z,5.38
2023-04-27T02:15:09.007Z,4.85
2023-04-27T02:17:35.904Z,4.50
2023-04-27T02:20:02.791Z,5.13
2023-04-27T02:22:29.599Z,4.88
2023-04-27T02:24:56.804Z,4.78
2023-04-27T02:27:23.696Z,4.90
2023-04-27T02:29:51.101Z,5.15
2023-04-27T02:32:18.399Z,4.85
2023-04-27T02:34:45.399Z,4.53
2023-04-27T02:37:12.378Z,4.47
2023-04-27T02:39:39.216Z,4.85
2023-04-27T02:42:06.687Z,4.95
2023-04-27T02:44:33.482Z,4.80
2023-04-27T02:47:00.492Z,5.55
2023-04-27T02:49:27.445Z,4.90
2023-04-27T02:51:54.431Z,4.95
2023-04-27T02:54:21.266Z,5.45
2023-04-27T02:56:48.288Z,4.50
2023-04-27T02:59:15.397Z,4.80
2023-04-27T03:01:42.779Z,4.93
2023-04-27T03:04:10.786Z,5.38
2023-04-27T03:06:37.734Z,5.38
2023-04-27T03:09:04.914Z,5.75
2023-04-27T03:11:31.744Z,5.32
2023-04-27T03:13:59.097Z,5.43
2023-04-27T03:16:26.138Z,4.90
2023-04-27T03:18:53.100Z,5.65
2023-04-27T03:21:20.260Z,5.57
2023-04-27T03:23:50.530Z,5.20
2023-04-27T03:26:17.422Z,6.05
2023-04-27T03:28:44.829Z,6.10
2023-04-27T03:31:14.186Z,6.15
2023-04-27T03:33:41.984Z,6.47
2023-04-27T03:36:11.158Z,6.40
2023-04-27T03:38:41.924Z,5.03
2023-04-27T03:41:08.955Z,5.55
2023-04-27T03:43:36.447Z,5.38
2023-04-27T03:46:03.374Z,6.18
2023-04-27T03:48:31.017Z,4.95
2023-04-27T03:50:58.066Z,5.53
2023-04-27T03:53:24.977Z,5.30
2023-04-27T03:55:52.245Z,5.55
2023-04-27T03:58:19.089Z,5.68
2023-04-27T04:01:10.229Z,5.43
2023-04-27T04:03:37.825Z,6.07
2023-04-27T04:06:07.627Z,5.47
2023-04-27T04:08:34.720Z,6.15
2023-04-27T04:11:01.782Z,5.10
2023-04-27T04:13:29.769Z,5.53
2023-04-27T04:16:09.050Z,5.32
2023-04-27T04:18:37.027Z,5.63
2023-04-27T04:21:05.899Z,5.68
2023-04-27T04:23:33.002Z,6.00
2023-04-27T04:26:00.063Z,6.00
2023-04-27T04:28:31.272Z,5.85
2023-04-27T04:30:59.185Z,5.22
2023-04-27T04:33:26.461Z,5.30
2023-04-27T04:35:54.454Z,5.70
2023-04-27T04:38:21.383Z,5.68
2023-04-27T04:40:48.535Z,5.15
2023-04-27T04:43:15.400Z,6.20
2023-04-27T04:45:42.786Z,5.72
2023-04-27T04:48:16.499Z,5.57
2023-04-27T04:50:45.175Z,5.03
2023-04-27T04:53:12.998Z,6.18
2023-04-27T04:55:41.113Z,5.38
2023-04-27T04:58:09.149Z,6.15
2023-04-27T05:00:36.000Z,6.10
2023-04-27T05:03:03.074Z,5.30
2023-04-27T05:05:30.077Z,5.97
2023-04-27T05:07:57.034Z,5.60
2023-04-27T05:10:23.830Z,6.05
2023-04-27T05:12:51.043Z,5.75
2023-04-27T05:15:18.169Z,5.82
2023-04-27T05:17:44.964Z,5.78
2023-04-27T05:20:12.127Z,5.03
2023-04-27T05:22:38.965Z,5.53
2023-04-27T05:25:06.728Z,6.13
2023-04-27T05:27:33.543Z,5.80
2023-04-27T05:30:00.712Z,6.15
2023-04-27T05:32:27.641Z,6.43
2023-04-27T05:34:54.492Z,6.47
2023-04-27T05:37:21.387Z,5.43
2023-04-27T05:39:48.223Z,6.55
2023-04-27T05:42:15.066Z,5.93
2023-04-27T05:44:41.920Z,6.22
2023-04-27T05:47:08.760Z,6.18
2023-04-27T05:49:36.037Z,5.93
2023-04-27T05:52:02.882Z,5.38
2023-04-27T05:54:29.859Z,5.68
2023-04-27T05:56:56.725Z,5.57
2023-04-27T05:59:23.606Z,6.13
2023-04-27T06:01:50.468Z,5.63
2023-04-27T06:04:17.765Z,5.45
2023-04-27T06:06:44.949Z,5.45
2023-04-27T06:09:11.975Z,5.00
2023-04-27T06:11:38.920Z,4.28
2023-04-27T06:14:05.776Z,4.70
2023-04-27T06:16:32.702Z,3.00
2023-04-27T06:18:59.655Z,4.22
2023-04-27T06:21:26.606Z,5.90
2023-04-27T06:23:53.407Z,5.15
2023-04-27T06:26:20.267Z,4.47
2023-04-27T06:28:47.151Z,3.75
2023-04-27T06:31:13.990Z,4.90
2023-04-27T06:33:41.479Z,4.70
2023-04-27T06:36:08.973Z,3.55
2023-04-27T06:38:35.779Z,3.53
2023-04-27T06:41:03.314Z,3.92
2023-04-27T06:43:30.930Z,2.90
2023-04-27T06:45:57.776Z,3.35
2023-04-27T06:48:24.671Z,3.60
2023-04-27T06:50:52.059Z,4.28
2023-04-27T06:53:18.994Z,3.90
2023-04-27T06:55:48.316Z,2.35
2023-04-27T06:58:15.428Z,2.45
2023-04-27T07:00:42.351Z,3.20
2023-04-27T07:03:09.427Z,3.50
2023-04-27T07:05:36.465Z,2.28
2023-04-27T07:08:06.143Z,3.28
2023-04-27T07:10:35.530Z,3.25
2023-04-27T07:13:02.404Z,4.05
2023-04-27T07:15:31.671Z,3.10
2023-04-27T07:17:58.688Z,3.90
2023-04-27T07:20:26.853Z,3.50
2023-04-27T07:22:53.873Z,4.65
2023-04-27T07:25:20.867Z,3.90
2023-04-27T07:27:47.970Z,3.45
2023-04-27T07:30:15.742Z,3.70
2023-04-27T07:32:43.184Z,3.47
2023-04-27T07:35:10.249Z,3.38
2023-04-27T07:37:38.341Z,3.78
2023-04-27T07:40:14.430Z,4.38
2023-04-27T07:42:42.199Z,4.25
2023-04-27T07:45:10.324Z,3.55
2023-04-27T07:47:37.810Z,4.55
2023-04-27T07:50:07.373Z,3.83
2023-04-27T07:52:34.246Z,4.03
2023-04-27T07:55:01.259Z,3.92
2023-04-27T07:57:28.165Z,4.10
2023-04-27T07:59:55.201Z,3.97
2023-04-27T08:02:22.192Z,3.63
2023-04-27T08:04:50.222Z,4.03
2023-04-27T08:07:18.318Z,3.63
2023-04-27T08:09:45.867Z,3.50
2023-04-27T08:12:12.700Z,3.58
2023-04-27T08:14:39.548Z,3.50
2023-04-27T08:17:06.996Z,3.60
2023-04-27T08:19:34.398Z,3.70
2023-04-27T08:22:01.276Z,4.07
2023-04-27T08:24:28.095Z,3.40
2023-04-27T08:26:54.989Z,3.90
2023-04-27T08:29:27.626Z,4.43
2023-04-27T08:32:00.224Z,3.40
2023-04-27T08:34:28.869Z,4.18
2023-04-27T08:36:56.969Z,3.33
2023-04-27T08:39:26.263Z,3.65
2023-04-27T08:41:53.437Z,3.53
2023-04-27T08:44:20.640Z,3.72
2023-04-27T08:46:47.694Z,3.22
2023-04-27T08:49:16.563Z,3.35
2023-04-27T08:51:44.536Z,3.58
2023-04-27T08:54:11.469Z,3.13
2023-04-27T08:56:39.513Z,3.10
2023-04-27T08:59:15.795Z,3.60
2023-04-27T09:01:50.013Z,3.65
2023-04-27T09:04:20.571Z,3.03
2023-04-27T09:06:49.040Z,3.63
2023-04-27T09:09:26.327Z,3.28
2023-04-27T09:11:53.261Z,3.35
2023-04-27T09:14:23.813Z,3.40
2023-04-27T09:17:00.060Z,3.70
2023-04-27T09:19:29.338Z,3.25
2023-04-27T09:22:11.752Z,3.67
2023-04-27T09:24:38.761Z,3.47
2023-04-27T09:27:07.549Z,3.97
2023-04-27T09:29:37.338Z,3.33
2023-04-27T09:32:19.152Z,3.42
2023-04-27T09:34:46.335Z,3.22
2023-04-27T09:37:14.800Z,3.05
2023-04-27T09:39:43.000Z,3.05
2023-04-27T09:42:12.219Z,3.22
2023-04-27T09:44:39.144Z,4.20
2023-04-27T09:47:07.465Z,3.55
2023-04-27T09:49:34.960Z,3.33
2023-04-27T09:52:01.833Z,3.60
2023-04-27T09:54:34.586Z,3.33
2023-04-27T09:57:36.628Z,3.30
2023-04-27T10:00:14.733Z,3.90
2023-04-27T10:03:21.056Z,3.58
2023-04-27T10:06:19.146Z,3.88
2023-04-27T10:08:46.509Z,3.80
2023-04-27T10:11:20.554Z,3.53
2023-04-27T10:13:55.402Z,3.47
2023-04-27T10:16:22.687Z,3.30
2023-04-27T10:18:55.571Z,3.80
2023-04-27T10:21:23.910Z,3.30
2023-04-27T10:23:52.447Z,3.58
2023-04-27T10:26:27.724Z,3.47
2023-04-27T10:29:09.139Z,3.53
2023-04-27T10:31:43.206Z,3.40
2023-04-27T10:34:15.681Z,3.85
2023-04-27T10:36:42.641Z,3.83
2023-04-27T10:39:29.936Z,3.60
2023-04-27T10:42:03.324Z,3.75
2023-04-27T10:44:33.457Z,4.13
2023-04-27T10:47:13.185Z,3.20
2023-04-27T10:49:40.645Z,3.45
2023-04-27T10:52:07.699Z,3.45
2023-04-27T10:54:36.721Z,3.88
2023-04-27T10:57:11.417Z,4.22
2023-04-27T10:59:51.266Z,4.22
2023-04-27T11:02:27.933Z,4.13
2023-04-27T11:04:56.475Z,4.25
2023-04-27T11:07:26.599Z,4.07
2023-04-27T11:09:54.303Z,4.03
2023-04-27T11:12:22.018Z,3.67
2023-04-27T11:14:48.995Z,4.05
2023-04-27T11:17:16.038Z,4.50
2023-04-27T11:19:49.903Z,3.80
2023-04-27T11:22:16.979Z,4.65
2023-04-27T11:24:52.111Z,2.97
2023-04-27T11:27:22.195Z,3.78
2023-04-27T11:29:49.064Z,4.22
2023-04-27T11:32:21.163Z,4.47
2023-04-27T11:34:55.185Z,3.90
2023-04-27T11:37:25.891Z,4.45
2023-04-27T11:39:54.779Z,4.60
2023-04-27T11:42:31.475Z,4.43
2023-04-27T11:45:09.107Z,4.47
2023-04-27T11:47:36.075Z,4.43
2023-04-27T11:50:07.865Z,4.57
2023-04-27T11:52:37.491Z,4.18
2023-04-27T11:55:05.716Z,4.47
2023-04-27T11:57:35.856Z,5.05
2023-04-27T12:00:14.553Z,4.68
2023-04-27T12:02:43.843Z,4.15
2023-04-27T12:05:13.226Z,4.53
2023-04-27T12:07:41.320Z,4.40
2023-04-27T12:10:09.070Z,4.53
2023-04-27T12:12:36.196Z,4.00
2023-04-27T12:15:03.412Z,3.42
2023-04-27T12:17:30.462Z,4.85
2023-04-27T12:19:57.396Z,4.60
2023-04-27T12:22:24.423Z,4.90
2023-04-27T12:24:51.731Z,4.53
2023-04-27T12:27:18.584Z,3.65
2023-04-27T12:29:45.428Z,3.90
2023-04-27T12:32:12.288Z,4.28
2023-04-27T12:34:39.547Z,4.28
2023-04-27T12:37:07.054Z,4.55
2023-04-27T12:39:36.510Z,5.00
2023-04-27T12:42:03.710Z,5.72
2023-04-27T12:44:30.723Z,4.70
2023-04-27T12:46:57.546Z,3.85
2023-04-27T12:49:24.420Z,4.47
2023-04-27T12:51:53.084Z,4.63
2023-04-27T12:54:20.245Z,4.68
2023-04-27T12:56:47.168Z,5.97
2023-04-27T12:59:14.088Z,4.80
2023-04-27T13:01:40.951Z,3.72
2023-04-27T13:04:08.110Z,4.47
2023-04-27T13:06:35.489Z,4.47
2023-04-27T13:09:02.912Z,4.68
2023-04-27T13:11:30.102Z,5.25
2023-04-27T13:13:57.014Z,4.80
2023-04-27T13:16:25.757Z,4.45
2023-04-27T13:18:55.516Z,5.07
2023-04-27T13:21:23.162Z,4.82
2023-04-27T13:23:51.190Z,4.53
2023-04-27T13:26:18.010Z,4.93
2023-04-27T13:28:44.851Z,4.65
2023-04-27T13:31:11.997Z,4.75
2023-04-27T13:33:42.268Z,3.85
2023-04-27T13:36:11.203Z,4.13
2023-04-27T13:38:38.309Z,3.88
2023-04-27T13:41:06.405Z,4.60
2023-04-27T13:43:33.359Z,4.18
2023-04-27T13:46:02.741Z,3.88
2023-04-27T13:48:31.062Z,4.38
2023-04-27T13:50:59.134Z,3.63
2023-04-27T13:53:26.561Z,3.95
2023-04-27T13:55:55.463Z,4.10
2023-04-27T13:58:25.600Z,4.00
2023-04-27T14:00:53.611Z,4.25
2023-04-27T14:03:21.659Z,3.47
2023-04-27T14:05:50.969Z,4.32
2023-04-27T14:08:18.717Z,4.40
2023-04-27T14:10:46.428Z,4.78
2023-04-27T14:13:13.610Z,4.10
2023-04-27T14:15:41.498Z,4.85
2023-04-27T14:18:09.883Z,4.82
2023-04-27T14:20:40.281Z,4.72
2023-04-27T14:23:09.044Z,4.40
2023-04-27T14:25:35.824Z,4.68
2023-04-27T14:28:05.597Z,4.38
2023-04-27T14:30:34.448Z,4.70
2023-04-27T14:33:01.685Z,4.32
2023-04-27T14:35:28.752Z,4.40
2023-04-27T14:37:57.189Z,4.85
2023-04-27T14:40:24.192Z,4.18
2023-04-27T14:42:51.092Z,4.45
2023-04-27T14:45:18.959Z,4.85
2023-04-27T14:47:45.973Z,5.22
2023-04-27T14:50:13.015Z,5.05
2023-04-27T14:52:39.907Z,4.30
2023-04-27T14:55:07.767Z,5.20
2023-04-27T14:57:35.428Z,5.15
2023-04-27T15:00:06.748Z,4.82
2023-04-27T15:02:34.353Z,4.97
2023-04-27T15:05:01.510Z,4.90
2023-04-27T15:07:28.491Z,4.72
2023-04-27T15:09:55.650Z,5.20
2023-04-27T15:12:22.528Z,4.75
2023-04-27T15:14:51.670Z,4.85
2023-04-27T15:17:18.595Z,4.93
2023-04-27T15:19:45.432Z,4.43
2023-04-27T15:22:14.490Z,4.65
2023-04-27T15:24:41.419Z,4.47
2023-04-27T15:27:09.885Z,4.60
2023-04-27T15:29:37.360Z,5.43
2023-04-27T15:32:04.539Z,4.95
2023-04-27T15:34:31.889Z,4.57
2023-04-27T15:36:58.739Z,4.70
2023-04-27T15:39:27.310Z,4.90
2023-04-27T15:41:54.159Z,5.15
2023-04-27T15:44:21.148Z,4.57
2023-04-27T15:46:48.043Z,5.13
2023-04-27T15:49:15.175Z,5.20
2023-04-27T15:51:42.278Z,5.07
2023-04-27T15:54:09.185Z,4.50
2023-04-27T15:56:36.050Z,4.95
2023-04-27T15:59:04.440Z,4.82
2023-04-27T16:01:31.413Z,4.80
2023-04-27T16:03:58.398Z,4.78
2023-04-27T16:06:33.321Z,4.05
2023-04-27T16:09:03.269Z,4.60
2023-04-27T16:11:31.574Z,5.13
2023-04-27T16:13:59.477Z,4.95
2023-04-27T16:16:26.886Z,4.40
2023-04-27T16:18:54.262Z,4.40
2023-04-27T16:21:21.429Z,5.10
2023-04-27T16:23:48.777Z,5.47
2023-04-27T16:26:15.617Z,4.60
2023-04-27T16:28:42.727Z,4.53
2023-04-27T16:31:10.071Z,5.10
2023-04-27T16:33:36.935Z,5.57
2023-04-27T16:36:04.112Z,5.10
2023-04-27T16:38:31.010Z,5.80
2023-04-27T16:40:58.416Z,5.47
2023-04-27T16:43:25.442Z,5.65
2023-04-27T16:45:52.290Z,5.15
2023-04-27T16:48:19.151Z,5.15
2023-04-27T16:50:46.949Z,4.90
2023-04-27T16:53:14.944Z,5.35
2023-04-27T16:55:41.849Z,5.57
2023-04-27T16:58:08.744Z,4.80
2023-04-27T17:00:35.633Z,5.30
2023-04-27T17:03:02.576Z,5.13
2023-04-27T17:05:29.831Z,4.88
2023-04-27T17:07:56.806Z,5.00
2023-04-27T17:10:23.959Z,4.97
2023-04-27T17:12:51.229Z,5.38
2023-04-27T17:15:18.453Z,4.85
2023-04-27T17:17:45.588Z,5.20
2023-04-27T17:20:13.297Z,4.93
2023-04-27T17:22:40.125Z,4.90
2023-04-27T17:25:08.611Z,4.88
2023-04-27T17:27:35.494Z,5.38
2023-04-27T17:30:02.632Z,5.03
2023-04-27T17:32:29.609Z,6.55
2023-04-27T17:34:57.601Z,5.38
2023-04-27T17:37:24.514Z,5.13
2023-04-27T17:39:52.958Z,4.93
2023-04-27T17:42:20.548Z,5.18
2023-04-27T17:44:47.422Z,4.80
2023-04-27T17:47:14.518Z,5.47
2023-04-27T17:49:41.358Z,5.50
2023-04-27T17:52:08.283Z,5.72
2023-04-27T17:54:35.136Z,5.18
2023-04-27T17:57:02.077Z,4.57
2023-04-27T17:59:28.979Z,5.07
2023-04-27T18:01:56.020Z,5.28
2023-04-27T18:04:23.199Z,4.88
2023-04-27T18:06:50.201Z,5.03
2023-04-27T18:09:17.588Z,5.32
2023-04-27T18:11:44.583Z,5.47
2023-04-27T18:14:11.539Z,5.25
2023-04-27T18:16:38.479Z,5.25
2023-04-27T18:19:05.347Z,5.03
2023-04-27T18:21:32.724Z,5.22
2023-04-27T18:23:59.660Z,4.85
2023-04-27T18:26:26.750Z,5.28
2023-04-27T18:28:53.867Z,5.07
2023-04-27T18:31:20.810Z,4.97
2023-04-27T18:33:47.904Z,5.10
2023-04-27T18:36:14.804Z,5.95
2023-04-27T18:38:41.629Z,5.22
2023-04-27T18:41:08.607Z,5.47
2023-04-27T18:43:38.907Z,5.43
2023-04-27T18:46:06.387Z,4.80
2023-04-27T18:48:33.399Z,5.25
2023-04-27T18:51:00.417Z,5.18
2023-04-27T18:53:28.239Z,5.18
2023-04-27T18:55:55.260Z,4.85
2023-04-27T18:58:22.202Z,4.90
2023-04-27T19:00:49.149Z,4.80
2023-04-27T19:03:16.574Z,4.72
2023-04-27T19:05:44.104Z,4.68
2023-04-27T19:08:11.300Z,4.43
2023-04-27T19:10:41.879Z,5.47
2023-04-27T19:13:08.721Z,5.28
2023-04-27T19:15:35.764Z,5.15
2023-04-27T19:18:10.448Z,4.95
2023-04-27T19:20:39.587Z,5.10
2023-04-27T19:23:07.981Z,5.05
2023-04-27T19:25:35.326Z,4.60
2023-04-27T19:28:02.171Z,5.05
2023-04-27T19:30:29.037Z,5.35
2023-04-27T19:32:55.864Z,5.00
2023-04-27T19:35:23.930Z,6.35
2023-04-27T19:37:51.229Z,4.93
2023-04-27T19:40:18.387Z,4.70
2023-04-27T19:42:45.525Z,5.03
2023-04-27T19:45:12.586Z,5.97
2023-04-27T19:47:39.638Z,5.03
2023-04-27T19:50:07.112Z,4.85
2023-04-27T19:52:34.185Z,4.85
2023-04-27T19:55:01.074Z,5.20
2023-04-27T19:57:27.996Z,5.35
2023-04-27T19:59:54.966Z,5.07
2023-04-27T20:02:21.918Z,6.13
2023-04-27T20:04:49.052Z,4.60
2023-04-27T20:07:16.178Z,5.97
2023-04-27T20:09:43.169Z,5.32
2023-04-27T20:12:23.712Z,5.07
2023-04-27T20:14:57.811Z,5.78
2023-04-27T20:17:27.428Z,5.38
2023-04-27T20:19:56.276Z,5.57
2023-04-27T20:22:23.953Z,5.43
2023-04-27T20:24:50.981Z,5.10
2023-04-27T20:27:17.988Z,5.28
2023-04-27T20:29:47.138Z,5.32
2023-04-27T20:32:14.043Z,4.07
2023-04-27T20:34:40.963Z,4.72
2023-04-27T20:37:07.958Z,5.45
2023-04-27T20:39:35.101Z,4.57
2023-04-27T20:42:02.080Z,6.15
2023-04-27T20:44:28.937Z,5.00
2023-04-27T20:46:55.806Z,4.88
2023-04-27T20:49:32.062Z,5.20
2023-04-27T20:52:01.686Z,5.15
2023-04-27T20:54:30.937Z,4.78
2023-04-27T20:56:57.831Z,4.38
2023-04-27T20:59:24.724Z,5.53
2023-04-27T21:01:51.806Z,5.68
2023-04-27T21:04:19.089Z,4.78
2023-04-27T21:06:46.254Z,4.57
2023-04-27T21:09:13.184Z,5.35
2023-04-27T21:11:40.094Z,5.57
2023-04-27T21:14:06.971Z,5.28
2023-04-27T21:16:33.861Z,4.88
2023-04-27T21:19:00.794Z,5.25
2023-04-27T21:21:27.615Z,6.00
2023-04-27T21:24:04.252Z,4.72
2023-04-27T21:26:33.864Z,5.18
2023-04-27T21:29:01.501Z,5.10
2023-04-27T21:31:28.467Z,5.80
2023-04-27T21:33:55.323Z,5.90
2023-04-27T21:36:22.211Z,5.07
2023-04-27T21:38:49.413Z,5.32
2023-04-27T21:41:17.451Z,5.80
2023-04-27T21:43:45.055Z,6.10
2023-04-27T21:46:12.037Z,5.28
2023-04-27T21:48:38.965Z,5.28
2023-04-27T21:51:05.992Z,5.60
2023-04-27T21:53:32.989Z,5.25
2023-04-27T21:56:00.295Z,6.18
2023-04-27T21:58:27.184Z,5.45
2023-04-27T22:00:54.075Z,5.38
2023-04-27T22:03:21.811Z,4.97
2023-04-27T22:05:50.270Z,6.82
2023-04-27T22:08:20.175Z,5.13
2023-04-27T22:10:47.218Z,5.18
2023-04-27T22:15:44.213Z,5.65
2023-04-27T22:18:11.154Z,4.93
2023-04-27T22:20:38.576Z,5.20
2023-04-27T22:23:05.431Z,4.72
2023-04-27T22:25:34.143Z,5.30
2023-04-27T22:28:01.760Z,4.85
2023-04-27T22:30:31.544Z,4.95
2023-04-27T22:32:58.513Z,5.15
2023-04-27T22:35:27.600Z,5.30
2023-04-27T22:38:01.140Z,5.20
2023-04-27T22:40:28.106Z,4.63
2023-04-27T22:42:55.497Z,5.38
2023-04-27T22:45:23.741Z,5.18
2023-04-27T22:47:51.025Z,5.60
2023-04-27T22:50:18.157Z,5.45
2023-04-27T22:52:45.307Z,5.13
2023-04-27T22:55:14.881Z,4.82
2023-04-27T22:57:41.961Z,6.03
2023-04-27T23:00:11.436Z,5.25
2023-04-27T23:02:42.762Z,5.78
2023-04-27T23:05:13.108Z,5.00
2023-04-27T23:07:43.865Z,5.90
2023-04-27T23:10:11.225Z,6.03
2023-04-27T23:12:38.784Z,5.25
2023-04-27T23:15:06.334Z,5.13
2023-04-27T23:17:33.657Z,6.45
2023-04-27T23:20:11.188Z,5.18
2023-04-27T23:22:43.635Z,5.63
2023-04-27T23:25:11.374Z,5.90
2023-04-27T23:27:38.216Z,6.25
2023-04-27T23:30:05.939Z,5.93
2023-04-27T23:32:33.206Z,6.07
2023-04-27T23:35:00.377Z,6.05
2023-04-27T23:37:27.240Z,6.30
2023-04-27T23:39:54.086Z,6.03
2023-04-27T23:42:20.893Z,6.20
2023-04-27T23:44:47.762Z,6.50
2023-04-27T23:47:14.662Z,6.60
2023-04-27T23:49:44.781Z,6.50
2023-04-27T23:52:12.233Z,6.28
2023-04-27T23:54:39.128Z,7.13
2023-04-27T23:57:06.582Z,6.70
2023-04-27T23:59:37.263Z,5.47
